createdAt,value
2022-10-11T00:01:41.454Z,95.87
2022-10-11T00:04:08.040Z,95.71
2022-10-11T00:06:34.656Z,95.35
2022-10-11T00:09:01.248Z,95.48
2022-10-11T00:11:27.835Z,96.04
2022-10-11T00:13:54.294Z,95.50
2022-10-11T00:16:21.023Z,95.78
2022-10-11T00:18:47.482Z,96.01
2022-10-11T00:21:15.919Z,95.29
2022-10-11T00:23:43.409Z,94.68
2022-10-11T00:26:11.855Z,95.36
2022-10-11T00:28:38.660Z,94.59
2022-10-11T00:31:11.990Z,95.11
2022-10-11T00:33:38.476Z,94.85
2022-10-11T00:36:05.897Z,95.18
2022-10-11T00:38:32.575Z,95.25
2022-10-11T00:41:00.229Z,94.82
2022-10-11T00:43:29.062Z,94.42
2022-10-11T00:45:55.445Z,94.71
2022-10-11T00:48:27.600Z,94.91
2022-10-11T00:50:58.264Z,94.72
2022-10-11T00:53:25.622Z,94.69
2022-10-11T00:56:04.782Z,94.67
2022-10-11T00:58:35.077Z,94.62
2022-10-11T01:01:01.738Z,95.17
2022-10-11T01:03:30.378Z,94.67
2022-10-11T01:05:57.121Z,94.73
2022-10-11T01:08:25.539Z,94.72
2022-10-11T01:10:52.181Z,95.11
2022-10-11T01:13:38.838Z,94.27
2022-10-11T01:16:37.701Z,94.98
2022-10-11T01:19:30.814Z,94.78
2022-10-11T01:22:22.178Z,95.21
2022-10-11T01:25:17.969Z,95.53
2022-10-11T01:28:13.275Z,95.56
2022-10-11T01:30:39.839Z,95.68
2022-10-11T01:33:40.090Z,96.08
2022-10-11T01:36:31.391Z,95.79
2022-10-11T01:39:11.659Z,95.98
2022-10-11T01:41:46.711Z,96.19
2022-10-11T01:44:13.832Z,96.58
2022-10-11T01:46:41.203Z,96.20
2022-10-11T01:49:08.529Z,95.64
2022-10-11T01:51:40.560Z,96.26
2022-10-11T01:55:03.959Z,95.68
2022-10-11T01:57:41.455Z,95.45
2022-10-11T02:00:18.057Z,95.28
2022-10-11T02:02:50.662Z,95.50
2022-10-11T02:05:36.535Z,95.33
2022-10-11T02:08:20.665Z,95.38
2022-10-11T02:11:02.317Z,95.56
2022-10-11T02:13:35.913Z,95.30
2022-10-11T02:16:07.088Z,95.55
2022-10-11T02:18:37.977Z,96.20
2022-10-11T02:21:08.742Z,95.88
2022-10-11T02:23:43.027Z,96.06
2022-10-11T02:26:12.034Z,96.14
2022-10-11T02:28:41.585Z,95.78
2022-10-11T02:31:11.276Z,95.76
2022-10-11T02:33:44.757Z,95.74
2022-10-11T02:36:17.954Z,95.62
2022-10-11T02:38:48.767Z,95.32
2022-10-11T02:41:38.942Z,95.65
2022-10-11T02:44:40.755Z,95.51
2022-10-11T02:47:08.872Z,95.24
2022-10-11T02:49:35.742Z,95.95
2022-10-11T02:52:04.822Z,96.10
2022-10-11T02:54:31.348Z,95.78
2022-10-11T02:56:57.773Z,96.27
2022-10-11T02:59:24.264Z,95.67
2022-10-11T03:01:50.783Z,96.05
2022-10-11T03:04:17.354Z,96.02
2022-10-11T03:06:43.793Z,96.41
2022-10-11T03:09:10.280Z,95.98
2022-10-11T03:11:36.780Z,96.71
2022-10-11T03:14:03.192Z,96.75
2022-10-11T03:16:30.908Z,96.58
2022-10-11T03:18:57.276Z,96.66
2022-10-11T03:21:25.169Z,96.90
2022-10-11T03:23:51.578Z,96.82
2022-10-11T03:26:18.013Z,96.07
2022-10-11T03:28:44.668Z,96.07
2022-10-11T03:31:12.256Z,96.06
2022-10-11T03:33:38.640Z,95.97
2022-10-11T03:36:05.899Z,96.24
2022-10-11T03:38:33.101Z,95.91
2022-10-11T03:40:59.597Z,95.82
2022-10-11T03:43:26.190Z,95.83
2022-10-11T03:45:52.651Z,95.58
2022-10-11T03:48:19.099Z,95.36
2022-10-11T03:50:45.532Z,95.87
2022-10-11T03:53:11.974Z,95.54
2022-10-11T03:55:40.243Z,95.43
2022-10-11T03:58:07.317Z,96.02
2022-10-11T04:00:34.669Z,95.93
2022-10-11T04:03:03.612Z,95.75
2022-10-11T04:05:30.715Z,94.55
2022-10-11T04:07:57.394Z,95.99
2022-10-11T04:10:23.903Z,95.04
2022-10-11T04:12:50.308Z,95.63
2022-10-11T04:15:16.846Z,95.31
2022-10-11T04:17:43.244Z,95.04
2022-10-11T04:20:10.065Z,95.51
2022-10-11T04:22:36.755Z,95.43
2022-10-11T04:25:03.211Z,95.99
2022-10-11T04:27:30.303Z,95.81
2022-10-11T04:29:56.733Z,95.25
2022-10-11T04:32:23.240Z,96.05
2022-10-11T04:34:49.876Z,95.38
2022-10-11T04:37:16.518Z,96.05
2022-10-11T04:39:42.852Z,95.82
2022-10-11T04:42:09.320Z,95.60
2022-10-11T04:44:35.874Z,96.09
2022-10-11T04:47:02.464Z,95.83
2022-10-11T04:49:28.909Z,95.92
2022-10-11T04:51:55.467Z,95.61
2022-10-11T04:54:21.921Z,95.75
2022-10-11T04:56:48.423Z,96.26
2022-10-11T04:59:14.995Z,95.94
2022-10-11T05:01:41.462Z,95.65
2022-10-11T05:04:07.997Z,95.98
2022-10-11T05:06:34.712Z,96.19
2022-10-11T05:09:01.129Z,95.93
2022-10-11T05:11:27.557Z,95.50
2022-10-11T05:13:54.001Z,95.42
2022-10-11T05:16:20.409Z,95.16
2022-10-11T05:18:46.831Z,94.98
2022-10-11T05:21:22.811Z,95.39
2022-10-11T05:23:51.046Z,95.52
2022-10-11T05:26:19.044Z,95.96
2022-10-11T05:28:45.810Z,95.85
2022-10-11T05:31:13.060Z,95.79
2022-10-11T05:33:39.493Z,96.19
2022-10-11T05:36:07.022Z,96.01
2022-10-11T05:38:34.007Z,95.74
2022-10-11T05:41:01.705Z,95.64
2022-10-11T05:43:29.241Z,96.27
2022-10-11T05:45:55.777Z,96.23
2022-10-11T05:48:22.337Z,95.23
2022-10-11T05:50:48.780Z,95.68
2022-10-11T05:53:15.212Z,95.81
2022-10-11T05:55:43.299Z,95.95
2022-10-11T05:58:15.128Z,96.19
2022-10-11T06:00:41.599Z,96.19
2022-10-11T06:03:10.907Z,95.67
2022-10-11T06:05:37.318Z,95.60
2022-10-11T06:08:08.709Z,95.72
2022-10-11T06:10:36.932Z,96.00
2022-10-11T06:13:03.505Z,96.14
2022-10-11T06:15:30.227Z,95.97
2022-10-11T06:17:57.952Z,96.05
2022-10-11T06:20:24.994Z,96.02
2022-10-11T06:22:51.534Z,96.01
2022-10-11T06:25:18.044Z,96.28
2022-10-11T06:27:45.153Z,95.77
2022-10-11T06:30:11.844Z,95.71
2022-10-11T06:32:38.225Z,95.46
2022-10-11T06:35:06.016Z,96.26
2022-10-11T06:37:32.422Z,95.65
2022-10-11T06:39:58.918Z,95.15
2022-10-11T06:42:25.511Z,95.11
2022-10-11T06:44:51.921Z,95.46
2022-10-11T06:47:18.356Z,94.68
2022-10-11T06:49:44.801Z,94.93
2022-10-11T06:52:11.275Z,94.93
2022-10-11T06:54:42.499Z,94.61
2022-10-11T06:57:11.084Z,94.94
2022-10-11T06:59:37.508Z,94.42
2022-10-11T07:02:03.977Z,94.11
2022-10-11T07:04:30.429Z,94.65
2022-10-11T07:06:56.896Z,95.06
2022-10-11T07:09:23.377Z,95.07
2022-10-11T07:11:49.814Z,94.93
2022-10-11T07:14:16.181Z,94.11
2022-10-11T07:16:42.666Z,94.40
2022-10-11T07:19:10.328Z,94.46
2022-10-11T07:21:36.920Z,94.28
2022-10-11T07:24:03.941Z,94.37
2022-10-11T07:26:36.807Z,94.63
2022-10-11T07:29:05.612Z,95.43
2022-10-11T07:31:32.199Z,94.57
2022-10-11T07:33:58.638Z,93.85
2022-10-11T07:36:25.381Z,94.12
2022-10-11T07:38:51.817Z,93.36
2022-10-11T07:41:18.539Z,93.56
2022-10-11T07:43:47.662Z,93.23
2022-10-11T07:46:14.164Z,93.77
2022-10-11T07:48:41.010Z,93.12
2022-10-11T07:51:11.878Z,93.01
2022-10-11T07:53:39.948Z,93.42
2022-10-11T07:56:07.844Z,93.96
2022-10-11T07:58:34.848Z,93.49
2022-10-11T08:01:01.417Z,93.47
2022-10-11T08:03:28.088Z,93.52
2022-10-11T08:05:54.740Z,93.21
2022-10-11T08:08:21.303Z,93.70
2022-10-11T08:10:48.138Z,93.66
2022-10-11T08:13:14.686Z,93.53
2022-10-11T08:15:41.287Z,93.12
2022-10-11T08:18:07.801Z,93.19
2022-10-11T08:20:34.272Z,93.54
2022-10-11T08:23:00.935Z,93.41
2022-10-11T08:25:27.485Z,92.46
2022-10-11T08:27:54.023Z,92.62
2022-10-11T08:30:20.473Z,91.95
2022-10-11T08:32:46.882Z,91.97
2022-10-11T08:35:13.321Z,91.44
2022-10-11T08:37:39.795Z,90.96
2022-10-11T08:40:06.999Z,91.92
2022-10-11T08:42:45.684Z,91.99
2022-10-11T08:45:46.507Z,91.13
2022-10-11T08:48:17.952Z,91.57
2022-10-11T08:50:47.410Z,90.83
2022-10-11T08:53:26.873Z,90.86
2022-10-11T08:55:54.759Z,90.66
2022-10-11T08:58:26.015Z,89.60
2022-10-11T09:00:55.600Z,89.94
2022-10-11T09:03:31.191Z,88.75
2022-10-11T09:06:23.125Z,89.34
2022-10-11T09:09:08.390Z,88.27
2022-10-11T09:11:42.507Z,87.72
2022-10-11T09:14:36.202Z,87.20
2022-10-11T09:17:19.546Z,87.36
2022-10-11T09:20:10.886Z,87.05
2022-10-11T09:23:35.255Z,85.96
2022-10-11T09:26:22.904Z,85.05
2022-10-11T09:29:08.298Z,84.89
2022-10-11T09:31:34.909Z,83.55
2022-10-11T09:34:11.143Z,82.21
2022-10-11T09:36:41.231Z,81.59
2022-10-11T09:39:25.107Z,80.47
2022-10-11T09:42:07.872Z,80.04
2022-10-11T09:44:37.867Z,78.96
2022-10-11T09:47:05.708Z,77.31
2022-10-11T09:49:38.268Z,75.86
2022-10-11T09:52:11.212Z,75.18
2022-10-11T09:54:46.228Z,75.20
2022-10-11T09:57:20.041Z,75.48
2022-10-11T10:00:16.051Z,76.15
2022-10-11T10:02:48.941Z,74.54
2022-10-11T10:05:26.103Z,74.06
2022-10-11T10:08:10.669Z,73.05
2022-10-11T10:10:42.911Z,71.57
2022-10-11T10:13:24.170Z,72.45
2022-10-11T10:15:53.633Z,69.25
2022-10-11T10:18:36.154Z,69.93
2022-10-11T10:21:03.908Z,69.87
2022-10-11T10:23:33.276Z,69.37
2022-10-11T10:26:14.705Z,70.20
2022-10-11T10:29:09.306Z,69.01
2022-10-11T10:31:55.352Z,69.38
2022-10-11T10:34:35.329Z,69.31
2022-10-11T10:37:28.074Z,68.96
2022-10-11T10:40:17.199Z,67.84
2022-10-11T10:42:43.678Z,67.28
2022-10-11T10:45:21.604Z,66.77
2022-10-11T10:48:09.345Z,66.33
2022-10-11T10:50:52.608Z,67.15
2022-10-11T10:53:32.057Z,67.75
2022-10-11T10:56:01.774Z,67.05
2022-10-11T10:59:02.639Z,67.89
2022-10-11T11:01:32.604Z,66.45
2022-10-11T11:04:30.269Z,66.95
2022-10-11T11:07:22.962Z,65.67
2022-10-11T11:10:13.541Z,65.86
2022-10-11T11:12:48.660Z,66.11
2022-10-11T11:15:29.940Z,65.54
2022-10-11T11:18:20.753Z,64.87
2022-10-11T11:21:17.240Z,64.25
2022-10-11T11:23:56.851Z,62.90
2022-10-11T11:26:45.829Z,63.41
2022-10-11T11:29:15.023Z,63.05
2022-10-11T11:32:19.014Z,64.05
2022-10-11T11:34:58.287Z,64.64
2022-10-11T11:37:41.360Z,64.13
2022-10-11T11:40:16.325Z,64.19
2022-10-11T11:42:50.767Z,63.95
2022-10-11T11:45:46.732Z,64.85
2022-10-11T11:48:27.525Z,65.82
2022-10-11T11:51:11.346Z,66.59
2022-10-11T11:53:52.449Z,66.82
2022-10-11T11:56:33.401Z,66.70
2022-10-11T11:59:03.002Z,64.30
2022-10-11T12:01:55.868Z,65.39
2022-10-11T12:04:28.444Z,64.69
2022-10-11T12:07:18.873Z,65.32
2022-10-11T12:10:18.459Z,65.58
2022-10-11T12:12:45.498Z,62.19
2022-10-11T12:15:23.881Z,62.61
2022-10-11T12:17:53.057Z,62.30
2022-10-11T12:20:38.007Z,61.37
2022-10-11T12:23:27.289Z,61.08
2022-10-11T12:26:27.952Z,61.06
2022-10-11T12:29:18.694Z,60.68
2022-10-11T12:31:47.575Z,58.97
2022-10-11T12:34:20.999Z,59.37
2022-10-11T12:36:50.187Z,59.71
2022-10-11T12:39:19.556Z,59.87
2022-10-11T12:41:53.636Z,59.53
2022-10-11T12:44:23.014Z,59.96
2022-10-11T12:46:55.727Z,60.77
2022-10-11T12:49:28.367Z,61.23
2022-10-11T12:52:05.343Z,60.23
2022-10-11T12:54:37.724Z,61.29
2022-10-11T12:57:46.426Z,62.91
2022-10-11T13:00:20.766Z,62.07
2022-10-11T13:02:48.726Z,61.84
2022-10-11T13:05:25.816Z,61.02
2022-10-11T13:07:55.432Z,58.81
2022-10-11T13:10:32.675Z,57.89
2022-10-11T13:13:04.214Z,56.17
2022-10-11T13:15:30.912Z,57.04
2022-10-11T13:18:01.088Z,55.29
2022-10-11T13:20:37.442Z,57.13
2022-10-11T13:23:25.062Z,57.29
2022-10-11T13:25:52.352Z,57.98
2022-10-11T13:28:20.167Z,59.35
2022-10-11T13:30:51.177Z,59.67
2022-10-11T13:33:47.150Z,61.09
2022-10-11T13:36:17.693Z,60.17
2022-10-11T13:38:55.978Z,60.35
2022-10-11T13:41:24.835Z,59.57
2022-10-11T13:43:53.299Z,58.89
2022-10-11T13:46:23.202Z,60.13
2022-10-11T13:49:04.416Z,60.12
2022-10-11T13:51:34.775Z,60.05
2022-10-11T13:54:02.680Z,59.60
2022-10-11T13:56:32.728Z,59.63
2022-10-11T13:59:00.715Z,60.70
2022-10-11T14:01:36.183Z,60.41
2022-10-11T14:04:06.233Z,59.62
2022-10-11T14:06:43.609Z,60.10
2022-10-11T14:09:23.392Z,59.08
2022-10-11T14:11:50.307Z,58.23
2022-10-11T14:14:37.639Z,59.00
2022-10-11T14:17:18.567Z,56.59
2022-10-11T14:19:46.761Z,56.18
2022-10-11T14:22:18.176Z,57.68
2022-10-11T14:24:48.038Z,57.10
2022-10-11T14:27:22.353Z,56.25
2022-10-11T14:30:19.951Z,57.70
2022-10-11T14:32:36.424Z,57.06
2022-10-11T14:35:03.842Z,58.43
2022-10-11T14:37:30.337Z,57.21
2022-10-11T14:39:56.852Z,57.17
2022-10-11T14:42:23.359Z,57.90
2022-10-11T14:44:50.010Z,57.21
2022-10-11T14:47:16.772Z,57.76
2022-10-11T14:49:49.820Z,58.26
2022-10-11T14:52:16.247Z,57.44
2022-10-11T14:54:42.743Z,57.62
2022-10-11T14:57:12.048Z,58.29
2022-10-11T14:59:38.667Z,57.15
2022-10-11T15:02:08.710Z,57.38
2022-10-11T15:04:35.457Z,57.45
2022-10-11T15:07:03.049Z,59.12
2022-10-11T15:09:31.059Z,59.30
2022-10-11T15:11:58.165Z,60.54
2022-10-11T15:14:25.186Z,61.58
2022-10-11T15:16:52.587Z,62.22
2022-10-11T15:19:22.220Z,62.42
2022-10-11T15:21:49.069Z,63.46
2022-10-11T15:24:16.282Z,63.76
2022-10-11T15:26:43.910Z,64.12
2022-10-11T15:29:11.204Z,65.04
2022-10-11T15:31:38.181Z,64.92
2022-10-11T15:34:04.806Z,65.01
2022-10-11T15:36:31.393Z,66.17
2022-10-11T15:38:57.884Z,65.25
2022-10-11T15:41:24.254Z,65.80
2022-10-11T15:43:50.760Z,65.34
2022-10-11T15:46:22.449Z,65.35
2022-10-11T15:48:50.398Z,65.95
2022-10-11T15:51:17.324Z,65.86
2022-10-11T15:53:43.997Z,65.69
2022-10-11T15:56:16.172Z,66.51
2022-10-11T15:58:43.720Z,66.34
2022-10-11T16:01:19.083Z,67.24
2022-10-11T16:03:48.639Z,65.80
2022-10-11T16:06:16.204Z,66.68
2022-10-11T16:08:42.613Z,67.26
2022-10-11T16:11:09.939Z,67.77
2022-10-11T16:13:36.788Z,67.29
2022-10-11T16:16:06.123Z,68.04
2022-10-11T16:18:35.545Z,68.59
2022-10-11T16:21:06.874Z,68.67
2022-10-11T16:23:33.690Z,68.66
2022-10-11T16:26:04.278Z,67.93
2022-10-11T16:28:31.224Z,69.50
2022-10-11T16:30:58.183Z,70.05
2022-10-11T16:33:24.900Z,70.73
2022-10-11T16:35:52.172Z,71.52
2022-10-11T16:38:18.906Z,71.50
2022-10-11T16:40:45.368Z,71.72
2022-10-11T16:43:11.835Z,72.58
2022-10-11T16:45:38.291Z,72.86
2022-10-11T16:48:05.222Z,73.79
2022-10-11T16:50:34.475Z,75.47
2022-10-11T16:53:04.899Z,76.70
2022-10-11T16:55:31.438Z,76.86
2022-10-11T16:57:57.876Z,77.99
2022-10-11T17:00:24.375Z,78.76
2022-10-11T17:02:50.869Z,78.94
2022-10-11T17:05:17.428Z,78.94
2022-10-11T17:07:43.919Z,79.02
2022-10-11T17:10:10.376Z,78.55
2022-10-11T17:12:38.552Z,78.69
2022-10-11T17:15:05.857Z,79.10
2022-10-11T17:17:32.496Z,79.55
2022-10-11T17:19:59.116Z,80.32
2022-10-11T17:22:25.919Z,80.99
2022-10-11T17:24:52.464Z,80.75
2022-10-11T17:27:18.926Z,80.84
2022-10-11T17:29:45.360Z,81.77
2022-10-11T17:32:12.383Z,82.02
2022-10-11T17:34:38.772Z,82.26
2022-10-11T17:37:06.068Z,82.27
2022-10-11T17:39:32.487Z,82.17
2022-10-11T17:42:03.308Z,83.05
2022-10-11T17:44:29.760Z,82.72
2022-10-11T17:46:56.195Z,82.92
2022-10-11T17:49:22.618Z,82.63
2022-10-11T17:51:49.054Z,83.30
2022-10-11T17:54:16.283Z,83.64
2022-10-11T17:56:42.834Z,84.02
2022-10-11T17:59:15.762Z,83.62
2022-10-11T18:01:42.278Z,83.90
2022-10-11T18:04:16.213Z,83.92
2022-10-11T18:06:46.229Z,83.96
2022-10-11T18:09:14.564Z,83.81
2022-10-11T18:11:41.127Z,84.20
2022-10-11T18:14:08.054Z,84.02
2022-10-11T18:16:36.375Z,84.09
2022-10-11T18:19:05.710Z,84.12
2022-10-11T18:21:34.607Z,84.99
2022-10-11T18:24:03.581Z,85.27
2022-10-11T18:26:30.966Z,85.12
2022-10-11T18:28:58.638Z,84.72
2022-10-11T18:31:28.101Z,84.77
2022-10-11T18:33:55.221Z,85.32
2022-10-11T18:36:25.553Z,84.94
2022-10-11T18:38:54.957Z,85.14
2022-10-11T18:41:23.293Z,85.18
2022-10-11T18:43:50.620Z,85.53
2022-10-11T18:46:17.946Z,85.43
2022-10-11T18:48:46.237Z,85.27
2022-10-11T18:51:15.495Z,86.63
2022-10-11T18:53:42.078Z,85.95
2022-10-11T18:56:11.348Z,86.80
2022-10-11T18:58:39.076Z,86.67
2022-10-11T19:01:12.424Z,87.10
2022-10-11T19:03:39.304Z,86.95
2022-10-11T19:06:12.696Z,87.51
2022-10-11T19:08:39.169Z,87.52
2022-10-11T19:11:12.726Z,87.11
2022-10-11T19:13:39.843Z,86.83
2022-10-11T19:16:11.633Z,87.35
2022-10-11T19:18:41.831Z,87.89
2022-10-11T19:21:12.853Z,86.70
2022-10-11T19:23:44.536Z,87.46
2022-10-11T19:26:18.656Z,86.94
2022-10-11T19:28:45.852Z,87.33
2022-10-11T19:31:16.751Z,86.91
2022-10-11T19:33:45.212Z,87.52
2022-10-11T19:36:16.208Z,87.30
2022-10-11T19:38:48.378Z,87.09
2022-10-11T19:41:20.446Z,87.45
2022-10-11T19:43:48.153Z,87.74
2022-10-11T19:46:37.846Z,87.75
2022-10-11T19:49:09.370Z,88.79
2022-10-11T19:51:37.494Z,88.93
2022-10-11T19:54:06.697Z,89.03
2022-10-11T19:56:34.517Z,89.15
2022-10-11T19:59:01.845Z,88.92
2022-10-11T20:01:30.693Z,89.18
2022-10-11T20:04:03.521Z,88.89
2022-10-11T20:06:37.223Z,89.29
2022-10-11T20:09:27.908Z,89.49
2022-10-11T20:11:51.412Z,89.46
2022-10-11T20:14:17.974Z,88.94
2022-10-11T20:16:44.363Z,89.11
2022-10-11T20:19:10.815Z,88.85
2022-10-11T20:21:37.224Z,88.93
2022-10-11T20:24:04.149Z,89.41
2022-10-11T20:26:31.488Z,88.84
2022-10-11T20:29:00.954Z,89.68
2022-10-11T20:31:36.357Z,89.69
2022-10-11T20:34:04.805Z,89.86
2022-10-11T20:36:35.758Z,89.69
2022-10-11T20:39:02.286Z,89.61
2022-10-11T20:41:34.358Z,89.15
2022-10-11T20:44:02.022Z,89.81
2022-10-11T20:46:31.525Z,89.60
2022-10-11T20:49:01.965Z,90.19
2022-10-11T20:51:33.935Z,89.71
2022-10-11T20:54:02.054Z,89.89
2022-10-11T20:56:29.650Z,90.15
2022-10-11T20:58:57.580Z,89.54
2022-10-11T21:01:29.757Z,89.74
2022-10-11T21:04:01.225Z,89.52
2022-10-11T21:06:29.440Z,89.43
2022-10-11T21:08:57.148Z,89.80
2022-10-11T21:11:28.500Z,89.88
2022-10-11T21:13:57.257Z,90.55
2022-10-11T21:16:24.020Z,89.64
2022-10-11T21:18:52.325Z,90.07
2022-10-11T21:21:19.086Z,89.24
2022-10-11T21:23:45.519Z,89.98
2022-10-11T21:26:13.678Z,89.78
2022-10-11T21:28:41.032Z,90.02
2022-10-11T21:31:11.107Z,90.49
2022-10-11T21:33:38.444Z,90.16
2022-10-11T21:36:07.443Z,89.94
2022-10-11T21:38:34.334Z,89.18
2022-10-11T21:41:08.239Z,89.49
2022-10-11T21:43:36.040Z,89.33
2022-10-11T21:46:10.805Z,89.27
2022-10-11T21:48:37.479Z,89.38
2022-10-11T21:51:04.210Z,88.78
2022-10-11T21:53:30.825Z,89.06
2022-10-11T21:56:00.965Z,89.07
2022-10-11T21:58:28.170Z,89.20
2022-10-11T22:00:54.826Z,89.20
2022-10-11T22:03:21.399Z,88.85
2022-10-11T22:05:48.774Z,88.93
2022-10-11T22:08:15.195Z,89.64
2022-10-11T22:10:51.907Z,89.30
2022-10-11T22:13:18.427Z,89.17
2022-10-11T22:15:44.807Z,88.96
2022-10-11T22:18:11.516Z,89.50
2022-10-11T22:20:37.962Z,88.96
2022-10-11T22:23:04.548Z,89.46
2022-10-11T22:25:30.955Z,88.99
2022-10-11T22:27:57.362Z,88.71
2022-10-11T22:30:23.714Z,88.58
2022-10-11T22:32:51.720Z,88.55
2022-10-11T22:35:18.824Z,88.76
2022-10-11T22:37:45.576Z,89.78
2022-10-11T22:40:12.376Z,89.78
2022-10-11T22:42:38.935Z,89.25
2022-10-11T22:45:05.761Z,89.00
2022-10-11T22:47:32.217Z,89.37
2022-10-11T22:49:58.745Z,89.22
2022-10-11T22:52:25.294Z,89.20
2022-10-11T22:54:51.794Z,89.41
2022-10-11T22:57:18.292Z,89.92
2022-10-11T22:59:44.936Z,89.42
2022-10-11T23:02:11.311Z,89.57
2022-10-11T23:04:37.757Z,89.18
2022-10-11T23:07:05.216Z,89.75
2022-10-11T23:09:31.880Z,89.34
2022-10-11T23:11:59.197Z,89.70
2022-10-11T23:14:25.695Z,89.90
2022-10-11T23:16:52.264Z,89.72
2022-10-11T23:19:18.904Z,89.21
2022-10-11T23:21:45.653Z,89.95
2022-10-11T23:24:12.265Z,90.23
2022-10-11T23:26:38.651Z,89.90
2022-10-11T23:29:05.561Z,90.08
2022-10-11T23:31:31.999Z,90.18
2022-10-11T23:33:58.439Z,90.28
2022-10-11T23:36:26.093Z,89.93
2022-10-11T23:38:54.815Z,89.86
2022-10-11T23:41:26.776Z,90.33
2022-10-11T23:43:53.528Z,90.06
2022-10-11T23:46:20.182Z,89.86
2022-10-11T23:48:46.907Z,89.99
2022-10-11T23:51:13.875Z,90.51
2022-10-11T23:53:41.293Z,90.65
2022-10-11T23:56:11.431Z,90.18
2022-10-11T23:58:37.968Z,90.10
